Time,TemperatureF,DewpointF,PressureIn,WindDirection,WindDirectionDegrees,WindSpeedMPH,WindSpeedGustMPH,Humidity,HourlyPrecipIn,Conditions,Clouds,dailyrainin,SoftwareType,DateUTC
2013-05-24 00:07:00,65.5,56.0,29.97,SSE,162,0.0,2.0,71,0.00,,,0.00,weatherlink.com 1.10,2013-05-24 04:07:00,
2013-05-24 00:22:00,64.6,56.0,29.97,SSE,162,0.0,0.0,73,0.00,,,0.00,weatherlink.com 1.10,2013-05-24 04:22:00,
2013-05-24 00:37:00,63.7,56.0,29.98,North,355,0.0,2.0,75,0.00,,,0.00,weatherlink.com 1.10,2013-05-24 04:37:00,
2013-05-24 00:52:00,63.1,55.0,29.98,North,355,0.0,1.0,76,0.00,,,0.00,weatherlink.com 1.10,2013-05-24 04:52:00,
2013-05-24 01:07:00,62.7,55.0,29.99,North,355,0.0,1.0,77,0.00,,,0.00,weatherlink.com 1.10,2013-05-24 05:07:00,
2013-05-24 01:22:00,62.1,56.0,29.99,North,355,0.0,0.0,79,0.00,,,0.00,weatherlink.com 1.10,2013-05-24 05:22:00,
2013-05-24 01:38:00,61.2,56.0,29.99,North,360,0.0,1.0,82,0.00,,,0.00,weatherlink.com 1.10,2013-05-24 05:38:00,
2013-05-24 01:53:00,60.3,55.0,29.98,North,360,0.0,0.0,83,0.00,,,0.00,weatherlink.com 1.10,2013-05-24 05:53:00,
2013-05-24 02:23:00,58.6,55.0,29.98,North,360,0.0,0.0,87,0.00,,,0.00,weatherlink.com 1.10,2013-05-24 06:23:00,
2013-05-24 02:53:00,57.7,55.0,29.99,North,350,0.0,0.0,89,0.00,,,0.00,weatherlink.com 1.10,2013-05-24 06:53:00,
2013-05-24 03:08:00,57.3,55.0,29.99,North,360,0.0,1.0,90,0.00,,,0.00,weatherlink.com 1.10,2013-05-24 07:08:00,
2013-05-24 03:23:00,57.8,55.0,28.93,NW,315,0.0,1.0,89,0.00,,,0.00,weatherlink.com 1.10,2013-05-24 07:23:00,
2013-05-24 03:38:00,57.9,54.0,30.00,NW,315,0.0,0.0,88,0.00,,,0.00,weatherlink.com 1.10,2013-05-24 07:38:00,
2013-05-24 03:53:00,58.0,55.0,28.59,NW,315,0.0,1.0,88,0.00,,,0.00,weatherlink.com 1.10,2013-05-24 07:53:00,
2013-05-24 04:08:00,58.0,55.0,29.65,NW,314,0.0,2.0,88,0.00,,,0.00,weatherlink.com 1.10,2013-05-24 08:08:00,
2013-05-24 04:23:00,59.3,55.0,28.94,NW,319,0.0,4.0,86,0.00,,,0.00,weatherlink.com 1.10,2013-05-24 08:23:00,
2013-05-24 04:38:00,60.0,55.0,30.00,North,350,0.0,0.0,84,0.00,,,0.00,weatherlink.com 1.10,2013-05-24 08:38:00,
2013-05-24 04:53:00,59.5,55.0,30.00,North,350,0.0,1.0,85,0.00,,,0.00,weatherlink.com 1.10,2013-05-24 08:53:00,
2013-05-24 05:08:00,59.0,55.0,30.01,North,349,0.0,0.0,86,0.00,,,0.00,weatherlink.com 1.10,2013-05-24 09:08:00,
2013-05-24 05:23:00,59.0,55.0,29.65,North,349,0.0,0.0,87,0.00,,,0.00,weatherlink.com 1.10,2013-05-24 09:23:00,
2013-05-24 05:38:00,58.6,55.0,30.02,North,351,0.0,1.0,87,0.00,,,0.00,weatherlink.com 1.10,2013-05-24 09:38:00,
2013-05-24 05:53:00,59.0,55.0,30.02,NNW,338,0.0,3.0,87,0.00,,,0.00,weatherlink.com 1.10,2013-05-24 09:53:00,
2013-05-24 06:08:00,59.4,55.0,30.02,NW,306,0.0,3.0,85,0.00,,,0.00,weatherlink.com 1.10,2013-05-24 10:08:00,
2013-05-24 06:38:00,59.6,55.0,30.03,ENE,78,1.0,2.0,84,0.00,,,0.00,weatherlink.com 1.10,2013-05-24 10:38:00,
2013-05-24 06:53:00,59.5,55.0,30.03,WNW,300,0.0,3.0,84,0.00,,,0.00,weatherlink.com 1.10,2013-05-24 10:53:00,
2013-05-24 07:08:00,59.7,55.0,30.04,North,355,0.0,6.0,83,0.00,,,0.00,weatherlink.com 1.10,2013-05-24 11:08:00,
2013-05-24 07:23:00,60.4,55.0,30.06,NW,315,0.0,4.0,81,0.00,,,0.00,weatherlink.com 1.10,2013-05-24 11:23:00,
2013-05-24 07:38:00,60.7,55.0,28.65,NW,317,0.0,4.0,80,0.00,,,0.00,weatherlink.com 1.10,2013-05-24 11:38:00,
2013-05-24 07:53:00,61.3,55.0,30.08,North,360,0.0,4.0,79,0.00,,,0.00,weatherlink.com 1.10,2013-05-24 11:53:00,
2013-05-24 08:23:00,62.4,55.0,29.75,East,94,0.0,3.0,76,0.00,,,0.00,weatherlink.com 1.10,2013-05-24 12:23:00,
2013-05-24 08:39:00,63.1,55.0,29.05,NW,311,0.0,6.0,74,0.00,,,0.00,weatherlink.com 1.10,2013-05-24 12:39:00,
2013-05-24 09:08:00,65.3,52.0,30.12,SSW,206,1.0,6.0,63,0.00,,,0.00,weatherlink.com 1.10,2013-05-24 13:08:00,
2013-05-24 09:38:00,66.6,50.0,30.14,NW,307,4.0,7.0,56,0.00,,,0.00,weatherlink.com 1.10,2013-05-24 13:38:00,
2013-05-24 10:08:00,68.9,52.0,30.15,NE,51,0.0,5.0,56,0.00,,,0.00,weatherlink.com 1.10,2013-05-24 14:08:00,
2013-05-24 10:23:00,67.4,51.0,30.15,WNW,290,0.0,6.0,57,0.00,,,0.00,weatherlink.com 1.10,2013-05-24 14:23:00,
2013-05-24 11:08:00,69.5,52.0,29.18,WNW,296,5.0,5.0,54,0.00,,,0.00,weatherlink.com 1.10,2013-05-24 15:08:00,
2013-05-24 11:23:00,68.6,51.0,28.39,NNW,338,2.0,8.0,54,0.00,,,0.00,weatherlink.com 1.10,2013-05-24 15:23:00,
2013-05-24 11:53:00,69.4,51.0,27.64,SSE,167,1.0,10.0,52,0.00,,,0.00,weatherlink.com 1.10,2013-05-24 15:53:00,
2013-05-24 12:24:00,69.7,52.0,27.64,SE,140,3.0,9.0,53,0.00,,,0.00,weatherlink.com 1.10,2013-05-24 16:24:00,
2013-05-24 12:54:00,70.6,51.0,27.64,SW,222,0.0,8.0,51,0.00,,,0.00,weatherlink.com 1.10,2013-05-24 16:54:00,
2013-05-24 13:09:00,70.4,52.0,26.89,SSW,200,0.0,7.0,52,0.00,,,0.00,weatherlink.com 1.10,2013-05-24 17:09:00,
2013-05-24 13:24:00,70.8,52.0,26.58,ESE,122,8.0,8.0,51,0.00,,,0.00,weatherlink.com 1.10,2013-05-24 17:24:00,
2013-05-24 13:39:00,70.3,50.0,25.06,SE,126,5.0,11.0,48,0.00,,,0.00,weatherlink.com 1.10,2013-05-24 17:39:00,
2013-05-24 13:54:00,70.3,51.0,26.59,SE,140,0.0,6.0,51,0.00,,,0.00,weatherlink.com 1.10,2013-05-24 17:54:00,
2013-05-24 14:24:00,72.5,52.0,26.59,SE,128,3.0,9.0,48,0.00,,,0.00,weatherlink.com 1.10,2013-05-24 18:24:00,
2013-05-24 14:39:00,72.1,50.0,26.59,West,273,1.0,4.0,46,0.00,,,0.00,weatherlink.com 1.10,2013-05-24 18:39:00,
2013-05-24 14:54:00,72.2,50.0,26.59,SE,139,2.0,5.0,45,0.00,,,0.00,weatherlink.com 1.10,2013-05-24 18:54:00,
2013-05-24 15:09:00,72.6,51.0,26.59,ESE,103,0.0,8.0,46,0.00,,,0.00,weatherlink.com 1.10,2013-05-24 19:09:00,
2013-05-24 15:54:00,73.1,50.0,0.00,SE,138,2.0,7.0,45,0.00,,,0.00,weatherlink.com 1.10,2013-05-24 19:54:00,
2013-05-24 16:09:00,73.5,50.0,0.00,East,86,1.0,6.0,44,0.00,,,0.00,weatherlink.com 1.10,2013-05-24 20:09:00,
2013-05-24 16:24:00,73.9,52.0,0.00,SE,140,3.0,3.0,47,0.00,,,0.00,weatherlink.com 1.10,2013-05-24 20:24:00,
2013-05-24 16:39:00,73.9,51.0,0.00,ESE,118,2.0,5.0,45,0.00,,,0.00,weatherlink.com 1.10,2013-05-24 20:39:00,
2013-05-24 16:54:00,73.8,53.0,0.00,WNW,300,0.0,5.0,49,0.00,,,0.00,weatherlink.com 1.10,2013-05-24 20:54:00,
2013-05-24 17:09:00,74.0,52.0,0.00,ESE,118,2.0,7.0,46,0.00,,,0.00,weatherlink.com 1.10,2013-05-24 21:09:00,
2013-05-24 17:24:00,74.7,51.0,0.00,SSE,163,2.0,4.0,43,0.00,,,0.00,weatherlink.com 1.10,2013-05-24 21:24:00,
2013-05-24 17:39:00,74.7,51.0,0.00,SSE,149,1.0,5.0,43,0.00,,,0.00,weatherlink.com 1.10,2013-05-24 21:39:00,
2013-05-24 17:54:00,74.7,47.0,0.00,WNW,296,2.0,9.0,37,0.00,,,0.00,weatherlink.com 1.10,2013-05-24 21:54:00,
2013-05-24 18:09:00,74.7,47.0,24.20,WNW,295,3.0,6.0,38,0.00,,,0.00,weatherlink.com 1.10,2013-05-24 22:09:00,
2013-05-24 18:24:00,74.3,47.0,24.20,West,263,1.0,5.0,38,0.00,,,0.00,weatherlink.com 1.10,2013-05-24 22:24:00,
2013-05-24 18:39:00,73.6,48.0,24.20,NW,310,2.0,7.0,40,0.00,,,0.00,weatherlink.com 1.10,2013-05-24 22:39:00,
2013-05-24 18:54:00,73.4,48.0,24.20,SE,132,0.0,5.0,40,0.00,,,0.00,weatherlink.com 1.10,2013-05-24 22:54:00,
2013-05-24 19:09:00,73.1,50.0,24.20,NW,326,1.0,4.0,44,0.00,,,0.00,weatherlink.com 1.10,2013-05-24 23:09:00,
2013-05-24 19:24:00,72.4,50.0,24.20,East,95,0.0,2.0,46,0.00,,,0.00,weatherlink.com 1.10,2013-05-24 23:24:00,
2013-05-24 19:39:00,72.0,51.0,24.20,WNW,303,0.0,2.0,48,0.00,,,0.00,weatherlink.com 1.10,2013-05-24 23:39:00,
2013-05-24 19:54:00,71.3,51.0,24.20,West,275,0.0,2.0,49,0.00,,,0.00,weatherlink.com 1.10,2013-05-24 23:54:00,
2013-05-24 20:09:00,69.8,50.0,28.28,West,276,0.0,3.0,50,0.00,,,0.00,weatherlink.com 1.10,2013-05-25 00:09:00,
2013-05-24 20:39:00,66.3,52.0,27.95,South,182,0.0,1.0,61,0.00,,,0.00,weatherlink.com 1.10,2013-05-25 00:39:00,
2013-05-24 20:54:00,64.3,51.0,28.20,SSW,203,0.0,0.0,63,0.00,,,0.00,weatherlink.com 1.10,2013-05-25 00:54:00,
2013-05-24 21:09:00,62.4,51.0,29.46,SSW,203,0.0,0.0,67,0.00,,,0.00,weatherlink.com 1.10,2013-05-25 01:09:00,
2013-05-24 21:24:00,60.7,50.0,29.46,SSW,203,0.0,0.0,69,0.00,,,0.00,weatherlink.com 1.10,2013-05-25 01:24:00,
2013-05-24 21:39:00,59.4,51.0,29.46,SSW,203,0.0,0.0,73,0.00,,,0.00,weatherlink.com 1.10,2013-05-25 01:39:00,
2013-05-24 21:54:00,58.3,51.0,27.70,SSW,203,0.0,0.0,77,0.00,,,0.00,weatherlink.com 1.10,2013-05-25 01:54:00,
2013-05-24 22:09:00,57.2,50.0,27.70,SSW,203,0.0,0.0,78,0.00,,,0.00,weatherlink.com 1.10,2013-05-25 02:09:00,
2013-05-24 22:24:00,56.2,49.0,29.72,SSW,203,0.0,0.0,78,0.00,,,0.00,weatherlink.com 1.10,2013-05-25 02:24:00,
2013-05-24 22:39:00,55.6,50.0,29.02,SSW,203,0.0,0.0,82,0.00,,,0.00,weatherlink.com 1.10,2013-05-25 02:39:00,
2013-05-24 22:54:00,54.8,49.0,29.02,SSW,203,0.0,0.0,81,0.00,,,0.00,weatherlink.com 1.10,2013-05-25 02:54:00,
2013-05-24 23:09:00,54.2,49.0,29.02,SSW,203,0.0,0.0,83,0.00,,,0.00,weatherlink.com 1.10,2013-05-25 03:09:00,
2013-05-24 23:24:00,53.4,49.0,29.98,SSW,203,0.0,0.0,85,0.00,,,0.00,weatherlink.com 1.10,2013-05-25 03:24:00,
2013-05-24 23:39:00,52.7,48.0,29.92,SSW,203,0.0,0.0,85,0.00,,,0.00,weatherlink.com 1.10,2013-05-25 03:39:00,
2013-05-24 23:54:00,52.2,49.0,29.50,SSW,203,0.0,0.0,87,0.00,,,0.00,weatherlink.com 1.10,2013-05-25 03:54:00,